Time;durP1;ratioP1;P1;durP2;ratioP2;P2;SDS_P1;SDS_P2;PMS_P1;PMS_P2;Temp;Humidity;BMP_temperature;BMP_pressure;BME280_temperature;BME280_humidity;BME280_pressure;Samples;Min_cycle;Max_cycle;Signal;HPM_P1;HPM_P2
2023/04/12 00:00:12;;;;;;;0.40;0.40;;;;;;;5.89;80.00;99169.25;5055849;28;20091;-67
2023/04/12 00:02:43;;;;;;;0.47;0.47;;;;;;;5.81;80.28;99171.66;5055786;28;20088;-68
2023/04/12 00:05:12;;;;;;;1.02;0.85;;;;;;;5.73;80.47;99155.56;5055686;28;20049;-67
2023/04/12 00:07:45;;;;;;;0.60;0.60;;;;;;;5.68;80.31;99166.47;5056212;28;20445;-68
2023/04/12 00:10:14;;;;;;;0.65;0.65;;;;;;;5.68;80.35;99176.59;5056008;28;20065;-68
2023/04/12 00:12:43;;;;;;;0.32;0.32;;;;;;;5.72;80.86;99179.19;5055664;28;20140;-67
2023/04/12 00:15:12;;;;;;;0.40;0.40;;;;;;;5.73;80.62;99185.09;5055851;28;20063;-67
2023/04/12 00:17:41;;;;;;;0.43;0.43;;;;;;;5.79;80.65;99186.00;5055558;28;20119;-67
2023/04/12 00:20:11;;;;;;;0.28;0.28;;;;;;;5.81;80.46;99184.34;5055478;28;20041;-68
2023/04/12 00:22:42;;;;;;;0.38;0.38;;;;;;;5.86;80.62;99187.78;5055701;28;20509;-68
2023/04/12 00:25:11;;;;;;;0.57;0.57;;;;;;;5.81;81.11;99183.47;5055335;28;20135;-68
2023/04/12 00:27:40;;;;;;;0.40;0.40;;;;;;;5.76;80.78;99182.59;5055641;28;20033;-67
2023/04/12 00:30:10;;;;;;;0.88;0.88;;;;;;;5.66;80.59;99179.13;5054394;28;20049;-67
2023/04/12 00:32:39;;;;;;;0.30;0.30;;;;;;;5.60;80.59;99180.72;5054533;28;20076;-67
2023/04/12 00:35:08;;;;;;;0.33;0.33;;;;;;;5.56;80.63;99169.75;5053981;28;20127;-67
2023/04/12 00:37:37;;;;;;;0.43;0.43;;;;;;;5.57;80.62;99183.22;5054926;28;20041;-67
2023/04/12 00:40:10;;;;;;;0.43;0.43;;;;;;;5.50;80.82;99173.84;5054185;28;20079;-67
2023/04/12 00:42:39;;;;;;;0.50;0.50;;;;;;;5.47;80.86;99177.19;5054246;28;20045;-66
2023/04/12 00:45:09;;;;;;;0.73;0.73;;;;;;;5.42;80.69;99173.81;5054865;28;20072;-68
2023/04/12 00:47:39;;;;;;;0.85;0.85;;;;;;;5.29;80.62;99172.81;5055537;28;20135;-67
2023/04/12 00:50:10;;;;;;;0.95;0.95;;;;;;;5.31;80.55;99176.19;5054934;28;20055;-67
2023/04/12 00:52:40;;;;;;;0.45;0.43;;;;;;;5.33;81.08;99169.47;5055171;28;20441;-68
2023/04/12 00:55:10;;;;;;;0.47;0.47;;;;;;;5.26;81.17;99170.22;5055114;28;20044;-67
2023/04/12 00:57:40;;;;;;;0.70;0.70;;;;;;;5.20;81.37;99172.69;5053582;28;20055;-67
2023/04/12 01:00:12;;;;;;;1.15;1.05;;;;;;;5.17;81.04;99175.19;5054966;28;20376;-67
2023/04/12 01:02:46;;;;;;;0.20;0.20;;;;;;;5.09;80.94;99174.22;5054973;28;20052;-67
2023/04/12 01:05:20;;;;;;;0.60;0.60;;;;;;;5.09;81.13;99168.31;5054522;28;20602;-67
2023/04/12 01:08:05;;;;;;;0.28;0.28;;;;;;;5.07;81.17;99163.25;5054612;28;20221;-67
2023/04/12 01:10:46;;;;;;;0.30;0.30;;;;;;;5.03;81.65;99153.94;5053680;28;20045;-68
2023/04/12 01:13:28;;;;;;;0.65;0.65;;;;;;;5.07;81.52;99155.66;5053331;28;20049;-67
2023/04/12 01:16:09;;;;;;;0.30;0.30;;;;;;;4.99;81.37;99166.53;5053195;28;20052;-67
2023/04/12 01:18:44;;;;;;;0.52;0.52;;;;;;;5.06;81.62;99159.00;5053272;28;20045;-67
2023/04/12 01:21:18;;;;;;;0.80;0.80;;;;;;;5.06;81.90;99164.06;5053174;28;20077;-67
2023/04/12 01:24:15;;;;;;;1.02;0.95;;;;;;;4.98;81.68;99170.72;5054215;28;20135;-67
2023/04/12 01:26:48;;;;;;;0.57;0.57;;;;;;;4.85;81.92;99158.72;5053014;28;20040;-67
2023/04/12 01:29:22;;;;;;;0.60;0.60;;;;;;;4.84;82.02;99149.47;5054206;28;20045;-67
2023/04/12 01:31:54;;;;;;;0.50;0.50;;;;;;;4.75;82.28;99150.16;5052989;28;20052;-68
2023/04/12 01:34:26;;;;;;;0.88;0.88;;;;;;;4.80;82.78;99152.75;5054416;28;20041;-67
2023/04/12 01:36:57;;;;;;;1.27;0.93;;;;;;;4.62;82.66;99144.94;5052614;28;20080;-68
2023/04/12 01:39:27;;;;;;;0.57;0.57;;;;;;;4.65;82.51;99150.03;5054226;28;20041;-67
2023/04/12 01:41:57;;;;;;;1.48;1.38;;;;;;;4.68;83.15;99145.00;5053941;28;20048;-67
2023/04/12 01:44:27;;;;;;;0.43;0.43;;;;;;;4.72;83.15;99152.69;5053607;28;20041;-68
2023/04/12 01:46:56;;;;;;;0.20;0.20;;;;;;;4.66;83.05;99151.72;5052889;28;20511;-67
2023/04/12 01:49:32;;;;;;;0.28;0.28;;;;;;;4.59;82.34;99149.94;5053856;28;20045;-67
2023/04/12 01:52:07;;;;;;;0.22;0.22;;;;;;;4.60;82.93;99151.66;5053840;28;20079;-67
2023/04/12 01:54:41;;;;;;;0.88;0.88;;;;;;;4.60;82.41;99149.13;5053742;28;20067;-68
2023/04/12 01:57:12;;;;;;;0.80;0.80;;;;;;;4.62;83.01;99145.78;5053759;28;20048;-66
2023/04/12 01:59:44;;;;;;;0.40;0.40;;;;;;;4.61;82.73;99156.72;5052598;28;20506;-66
2023/04/12 02:02:14;;;;;;;0.75;0.75;;;;;;;4.59;82.38;99145.75;5054053;28;20076;-67
2023/04/12 02:04:43;;;;;;;;;;;;;;;4.54;82.52;99149.03;5053935;28;20566;-67
2023/04/12 02:07:14;;;;;;;2.53;1.17;;;;;;;4.53;82.96;99148.19;5054217;28;20007;-67
2023/04/12 02:09:43;;;;;;;0.30;0.30;;;;;;;4.54;82.92;99152.41;5054080;28;20422;-67
2023/04/12 02:12:12;;;;;;;2.63;0.67;;;;;;;4.50;82.63;99152.34;5052342;28;20045;-67
2023/04/12 02:14:42;;;;;;;2.20;1.43;;;;;;;4.54;82.93;99152.41;5052594;28;20049;-67
2023/04/12 02:17:11;;;;;;;0.52;0.52;;;;;;;4.51;83.09;99161.63;5053472;28;20282;-67
2023/04/12 02:19:41;;;;;;;1.38;1.17;;;;;;;4.40;83.02;99163.13;5053428;28;20072;-67
2023/04/12 02:22:12;;;;;;;1.10;0.63;;;;;;;4.31;82.53;99155.41;5053422;28;20147;-68
2023/04/12 02:24:41;;;;;;;0.50;0.50;;;;;;;4.24;82.79;99167.09;5052403;28;20033;-67
2023/04/12 02:27:10;;;;;;;0.55;0.55;;;;;;;4.22;83.10;99162.84;5053656;28;20706;-67
2023/04/12 02:29:39;;;;;;;0.60;0.60;;;;;;;4.28;83.29;99157.88;5053269;28;20049;-67
2023/04/12 02:32:09;;;;;;;0.57;0.57;;;;;;;4.31;83.38;99161.31;5052125;28;20048;-69
2023/04/12 02:34:39;;;;;;;3.63;2.55;;;;;;;4.24;82.73;99161.19;5052457;28;20048;-67
2023/04/12 02:37:16;;;;;;;0.65;0.65;;;;;;;4.07;82.77;99161.78;5053165;28;20053;-67
2023/04/12 02:39:45;;;;;;;0.20;0.20;;;;;;;4.01;82.87;99153.25;5053441;28;20487;-68
2023/04/12 02:42:15;;;;;;;;;;;;;;;4.05;82.92;99147.44;5052732;28;20052;-67
2023/04/12 02:44:46;;;;;;;;;;;;;;;4.04;82.74;99144.06;5053583;28;20346;-67
2023/04/12 02:47:18;;;;;;;0.30;0.30;;;;;;;4.06;83.14;99139.88;5053471;28;20281;-67
2023/04/12 02:49:49;;;;;;;0.75;0.75;;;;;;;4.00;82.69;99131.38;5053058;28;20049;-68
2023/04/12 02:52:19;;;;;;;0.55;0.55;;;;;;;3.92;82.76;99128.72;5053430;28;20471;-67
2023/04/12 02:54:59;;;;;;;1.65;1.30;;;;;;;3.83;82.91;99127.69;5053078;28;20053;-67
2023/04/12 02:57:29;;;;;;;0.40;0.40;;;;;;;3.82;82.88;99116.75;5057010;28;20140;-66
2023/04/12 02:59:58;;;;;;;0.57;0.57;;;;;;;3.70;83.09;99101.41;5056062;28;20037;-67
2023/04/12 03:02:41;;;;;;;1.40;1.00;;;;;;;3.75;82.76;99114.94;5056977;28;20064;-67
2023/04/12 03:05:16;;;;;;;0.50;0.50;;;;;;;3.69;83.21;99114.88;5056926;28;20069;-67
2023/04/12 03:07:45;;;;;;;;;;;;;;;3.81;83.43;99110.03;5056213;28;20099;-69
2023/04/12 03:10:15;;;;;;;0.20;0.20;;;;;;;3.89;83.83;99100.03;5056754;28;19921;-67
2023/04/12 03:12:50;;;;;;;0.38;0.38;;;;;;;3.87;83.61;99097.50;5055604;28;20071;-67
2023/04/12 03:15:22;;;;;;;0.82;0.65;;;;;;;3.79;82.98;99096.50;5055746;28;20044;-69
2023/04/12 03:17:55;;;;;;;1.20;0.90;;;;;;;3.75;83.43;99099.81;5056555;28;20140;-68
2023/04/12 03:20:29;;;;;;;0.32;0.32;;;;;;;3.69;83.39;99099.72;5056390;28;20137;-69
2023/04/12 03:23:03;;;;;;;1.33;1.25;;;;;;;3.67;82.71;99106.41;5056488;28;20049;-67
2023/04/12 03:25:35;;;;;;;1.25;1.15;;;;;;;3.68;83.27;99103.06;5056445;28;20128;-67
2023/04/12 03:28:29;;;;;;;0.35;0.35;;;;;;;3.59;83.00;99102.91;5056518;28;20072;-68
2023/04/12 03:31:01;;;;;;;2.75;2.55;;;;;;;3.56;82.77;99102.84;5056432;28;20055;-67
2023/04/12 03:33:41;;;;;;;2.30;1.40;;;;;;;3.51;82.89;99093.50;5056261;28;20087;-68
2023/04/12 03:36:20;;;;;;;1.90;1.80;;;;;;;3.52;83.15;99088.50;5055227;28;20095;-68
2023/04/12 03:38:55;;;;;;;0.57;0.57;;;;;;;3.35;82.38;99089.84;5056284;28;20056;-68
2023/04/12 03:41:23;;;;;;;0.57;0.57;;;;;;;3.29;83.04;99087.22;5055046;28;20041;-67
2023/04/12 03:43:52;;;;;;;0.90;0.90;;;;;;;3.38;83.03;99082.34;5056436;28;20407;-67
2023/04/12 03:46:21;;;;;;;1.55;1.45;;;;;;;3.46;83.09;99088.38;5056022;28;20048;-67
2023/04/12 03:48:58;;;;;;;3.05;2.70;;;;;;;3.54;82.95;99084.31;5054920;28;20111;-67
2023/04/12 03:51:29;;;;;;;0.60;0.60;;;;;;;3.55;83.07;99070.88;5055141;28;20064;-67
2023/04/12 03:54:04;;;;;;;7.60;3.10;;;;;;;3.54;82.89;99074.22;5055963;28;20049;-66
2023/04/12 03:56:51;;;;;;;0.73;0.73;;;;;;;3.37;83.23;99065.50;5055889;28;20044;-67
2023/04/12 03:59:26;;;;;;;1.95;1.50;;;;;;;3.33;82.92;99068.81;5054759;28;20045;-67
2023/04/12 04:01:55;;;;;;;1.65;1.55;;;;;;;3.38;82.97;99069.75;5056102;28;20402;-66
2023/04/12 04:04:29;;;;;;;1.45;1.35;;;;;;;3.35;82.46;99068.03;5055813;28;20123;-68
2023/04/12 04:07:02;;;;;;;2.58;2.17;;;;;;;3.30;82.37;99073.78;5054415;28;20041;-69
2023/04/12 04:09:40;;;;;;;1.52;1.42;;;;;;;3.31;83.45;99070.47;5055719;28;20123;-69
2023/04/12 04:12:11;;;;;;;2.60;2.35;;;;;;;3.29;83.45;99067.03;5055712;28;20049;-69
2023/04/12 04:14:45;;;;;;;1.38;1.27;;;;;;;3.28;83.52;99070.41;5055967;28;20103;-69
2023/04/12 04:17:23;;;;;;;1.50;1.23;;;;;;;3.24;82.71;99069.47;5055610;28;20128;-69
2023/04/12 04:19:55;;;;;;;0.73;0.73;;;;;;;3.21;82.80;99073.63;5055825;28;20456;-68
2023/04/12 04:22:24;;;;;;;1.38;1.25;;;;;;;3.22;82.87;99071.13;5054618;28;20376;-69
2023/04/12 04:24:54;;;;;;;2.50;2.05;;;;;;;3.22;83.26;99072.78;5054248;28;20084;-69
2023/04/12 04:27:23;;;;;;;1.63;1.20;;;;;;;3.25;83.10;99075.38;5054203;28;20083;-68
2023/04/12 04:29:57;;;;;;;2.65;2.45;;;;;;;3.22;83.18;99071.13;5054469;28;20403;-69
2023/04/12 04:32:27;;;;;;;0.50;0.50;;;;;;;3.26;82.56;99065.31;5055325;28;20049;-68
2023/04/12 04:34:59;;;;;;;0.80;0.80;;;;;;;3.33;83.15;99073.84;5054082;28;20071;-69
2023/04/12 04:37:42;;;;;;;3.63;2.20;;;;;;;3.41;83.15;99069.78;5054876;28;20049;-69
2023/04/12 04:40:13;;;;;;;0.57;0.47;;;;;;;3.52;83.51;99075.88;5055149;28;20116;-69
2023/04/12 04:42:45;;;;;;;1.00;1.00;;;;;;;3.59;82.72;99075.16;5055351;28;20045;-68
2023/04/12 04:45:14;;;;;;;3.05;1.42;;;;;;;3.64;83.13;99076.09;5053803;28;20047;-69
2023/04/12 04:47:45;;;;;;;4.65;3.67;;;;;;;3.68;83.47;99075.31;5054817;28;20053;-69
2023/04/12 04:50:16;;;;;;;0.98;0.90;;;;;;;3.73;83.13;99068.66;5054943;28;20038;-70
2023/04/12 04:52:47;;;;;;;1.63;1.52;;;;;;;3.80;83.86;99067.94;5053741;28;20048;-69
2023/04/12 04:55:17;;;;;;;5.13;4.72;;;;;;;3.95;83.56;99062.28;5054803;28;20045;-69
2023/04/12 04:57:47;;;;;;;4.07;2.38;;;;;;;4.04;83.28;99068.31;5054740;28;20530;-69
2023/04/12 05:00:18;;;;;;;1.38;1.27;;;;;;;4.22;83.51;99066.91;5053584;28;20045;-68
2023/04/12 05:02:54;;;;;;;2.55;2.35;;;;;;;4.35;83.59;99058.66;5054730;28;20486;-68
2023/04/12 05:05:29;;;;;;;0.30;0.30;;;;;;;4.52;83.76;99052.16;5054619;28;20058;-68
2023/04/12 05:08:09;;;;;;;0.43;0.43;;;;;;;4.71;83.83;99057.47;5054428;28;20136;-69
2023/04/12 05:10:38;;;;;;;0.40;0.40;;;;;;;4.92;83.96;99050.97;5054540;28;20049;-69
2023/04/12 05:13:08;;;;;;;0.60;0.60;;;;;;;5.06;83.77;99046.91;5054245;28;20041;-68
2023/04/12 05:15:41;;;;;;;0.50;0.50;;;;;;;5.19;83.52;99057.16;5053017;28;20357;-68
2023/04/12 05:18:10;;;;;;;2.60;1.27;;;;;;;5.37;83.37;99053.97;5052543;28;20041;-68
2023/04/12 05:20:40;;;;;;;0.73;0.73;;;;;;;5.52;83.53;99053.28;5053434;28;20514;-69
2023/04/12 05:23:09;;;;;;;0.25;0.25;;;;;;;5.73;83.06;99056.00;5053106;28;20147;-68
2023/04/12 05:25:45;;;;;;;0.90;0.90;;;;;;;5.95;83.03;99055.38;5053312;28;20397;-68
2023/04/12 05:28:16;;;;;;;2.38;1.15;;;;;;;6.17;82.34;99057.19;5054664;28;20139;-68
2023/04/12 05:30:45;;;;;;;;;;;;;;;6.32;81.60;99051.38;5053226;28;20044;-68
2023/04/12 05:33:18;;;;;;;0.30;0.30;;;;;;;6.46;81.71;99060.75;5054176;28;19920;-67
2023/04/12 05:35:50;;;;;;;0.40;0.40;;;;;;;6.59;81.17;99057.47;5054315;28;20410;-67
2023/04/12 05:38:19;;;;;;;0.43;0.43;;;;;;;6.77;80.19;99063.47;5053906;28;20492;-66
2023/04/12 05:40:53;;;;;;;1.10;1.00;;;;;;;6.91;80.37;99065.19;5052734;28;20049;-66
2023/04/12 05:43:24;;;;;;;1.77;1.23;;;;;;;7.08;79.88;99077.94;5053911;28;20510;-67
2023/04/12 05:45:53;;;;;;;1.43;1.33;;;;;;;7.23;79.76;99083.06;5052932;28;20041;-68
2023/04/12 05:48:24;;;;;;;1.65;1.02;;;;;;;7.32;79.01;99088.16;5054803;28;20080;-67
2023/04/12 05:50:57;;;;;;;1.15;1.13;;;;;;;7.37;77.90;99096.63;5052420;28;20075;-66
2023/04/12 05:53:28;;;;;;;0.77;0.77;;;;;;;7.18;78.37;99083.03;5052630;28;20099;-67
2023/04/12 05:56:00;;;;;;;2.13;1.35;;;;;;;7.10;77.59;99078.81;5053791;28;20049;-67
2023/04/12 05:58:32;;;;;;;1.83;0.77;;;;;;;7.12;78.53;99083.03;5053967;28;20395;-66
2023/04/12 06:01:00;;;;;;;1.35;1.20;;;;;;;7.10;78.21;99081.34;5052452;28;20098;-68
2023/04/12 06:03:30;;;;;;;0.77;0.70;;;;;;;7.19;77.86;99082.22;5052728;28;20384;-66
2023/04/12 06:06:11;;;;;;;0.63;0.50;;;;;;;7.40;78.63;99081.41;5053736;28;20071;-66
2023/04/12 06:08:41;;;;;;;0.30;0.30;;;;;;;7.74;78.81;99083.16;5053607;28;20098;-67
2023/04/12 06:11:10;;;;;;;0.50;0.50;;;;;;;8.08;78.22;99068.78;5053747;28;20422;-66
2023/04/12 06:13:42;;;;;;;4.22;1.40;;;;;;;8.43;77.18;99068.72;5052351;28;20053;-66
2023/04/12 06:16:12;;;;;;;0.40;0.40;;;;;;;8.67;76.81;99072.06;5052133;28;20045;-66
2023/04/12 06:18:41;;;;;;;0.60;0.60;;;;;;;8.96;75.28;99066.88;5052275;28;20041;-67
2023/04/12 06:21:12;;;;;;;0.57;0.57;;;;;;;9.10;73.74;99072.75;5053654;28;20565;-67
2023/04/12 06:23:42;;;;;;;1.13;1.02;;;;;;;9.26;73.42;99074.34;5052139;28;20063;-67
2023/04/12 06:26:12;;;;;;;0.93;0.93;;;;;;;9.47;72.58;99073.41;5053328;28;20057;-66
2023/04/12 06:28:42;;;;;;;0.50;0.50;;;;;;;9.65;70.62;99067.31;5052335;28;20049;-67
2023/04/12 06:31:11;;;;;;;0.77;0.77;;;;;;;9.81;70.27;99058.72;5056715;28;20029;-66
2023/04/12 06:33:42;;;;;;;1.70;1.60;;;;;;;9.96;69.50;99058.59;5056573;28;20052;-67
2023/04/12 06:36:14;;;;;;;0.30;0.30;;;;;;;10.02;68.26;99058.53;5056535;28;20059;-68
2023/04/12 06:38:44;;;;;;;0.85;0.85;;;;;;;10.12;67.00;99065.28;5057351;28;20049;-68
2023/04/12 06:41:12;;;;;;;1.05;0.98;;;;;;;10.30;66.47;99054.06;5057351;28;20052;-69
2023/04/12 06:43:41;;;;;;;0.40;0.40;;;;;;;10.43;65.58;99059.03;5057227;28;20094;-66
2023/04/12 06:46:10;;;;;;;0.50;0.50;;;;;;;10.52;65.08;99058.09;5057562;28;20098;-69
2023/04/12 06:48:39;;;;;;;0.60;0.60;;;;;;;10.60;64.35;99053.75;5057107;28;20071;-67
2023/04/12 06:51:08;;;;;;;0.50;0.50;;;;;;;10.69;63.80;99064.72;5057236;28;20049;-68
2023/04/12 06:53:39;;;;;;;0.30;0.30;;;;;;;10.77;62.68;99062.09;5057088;28;20507;-69
2023/04/12 06:56:08;;;;;;;0.57;0.57;;;;;;;10.84;62.35;99050.94;5057301;28;20053;-69
2023/04/12 06:58:37;;;;;;;0.60;0.60;;;;;;;11.06;62.60;99059.16;5057338;28;20123;-69
2023/04/12 07:01:06;;;;;;;0.85;0.85;;;;;;;11.20;62.22;99054.72;5056889;28;20061;-69
2023/04/12 07:03:35;;;;;;;0.43;0.43;;;;;;;11.20;61.32;99058.13;5057244;28;20549;-68
2023/04/12 07:06:04;;;;;;;0.53;0.50;;;;;;;11.14;60.13;99047.13;5056816;28;20072;-70
2023/04/12 07:08:54;;;;;;;0.22;0.22;;;;;;;11.20;59.52;99047.06;5056830;28;20122;-68
2023/04/12 07:11:23;;;;;;;0.50;0.50;;;;;;;11.34;59.32;99040.06;5056754;28;20045;-69
2023/04/12 07:13:52;;;;;;;0.55;0.55;;;;;;;11.48;59.84;99042.41;5057017;28;20107;-67
2023/04/12 07:16:21;;;;;;;0.45;0.45;;;;;;;11.55;59.08;99044.84;5056760;28;20037;-68
2023/04/12 07:18:50;;;;;;;0.75;0.75;;;;;;;11.67;59.00;99039.53;5056420;28;20099;-68
2023/04/12 07:21:18;;;;;;;0.30;0.30;;;;;;;11.78;58.72;99042.81;5056224;28;20414;-68
2023/04/12 07:23:49;;;;;;;0.63;0.63;;;;;;;11.93;58.70;99037.44;5056553;28;20100;-69
2023/04/12 07:26:21;;;;;;;0.32;0.32;;;;;;;12.07;58.53;99034.66;5055364;28;20083;-67
2023/04/12 07:28:50;;;;;;;0.57;0.50;;;;;;;12.16;57.76;99038.78;5056453;28;20132;-68
2023/04/12 07:31:19;;;;;;;0.43;0.40;;;;;;;12.18;56.40;99031.91;5056671;28;20537;-68
2023/04/12 07:33:47;;;;;;;0.40;0.40;;;;;;;12.28;56.08;99038.56;5056406;28;20296;-67
2023/04/12 07:36:19;;;;;;;0.50;0.50;;;;;;;12.40;55.89;99033.22;5056215;28;20068;-67
2023/04/12 07:38:53;;;;;;;0.40;0.40;;;;;;;12.44;55.68;99019.50;5056315;28;20072;-68
2023/04/12 07:41:24;;;;;;;0.40;0.40;;;;;;;12.59;56.14;99025.19;5055743;28;20041;-67
2023/04/12 07:43:53;;;;;;;0.30;0.30;;;;;;;12.71;55.36;99030.06;5055987;28;20049;-69
2023/04/12 07:46:22;;;;;;;1.27;1.17;;;;;;;12.76;54.87;99032.53;5056150;28;20103;-68
2023/04/12 07:48:51;;;;;;;0.30;0.30;;;;;;;12.70;54.13;99027.50;5055979;28;20045;-69
2023/04/12 07:51:20;;;;;;;0.30;0.30;;;;;;;12.61;53.59;99025.13;5056393;28;20041;-68
2023/04/12 07:53:50;;;;;;;0.30;0.30;;;;;;;12.66;53.60;99031.00;5055934;28;20037;-67
2023/04/12 07:56:18;;;;;;;;;;;;;;;12.70;53.34;99027.50;5056290;28;20079;-68
2023/04/12 07:58:49;;;;;;;0.93;0.90;;;;;;;12.72;53.19;99025.75;5055739;28;19931;-68
2023/04/12 08:01:17;;;;;;;0.40;0.40;;;;;;;12.85;53.70;99027.22;5055688;28;20049;-68
2023/04/12 08:03:47;;;;;;;0.50;0.50;;;;;;;12.90;52.75;99025.41;5055744;28;20040;-67
2023/04/12 08:06:17;;;;;;;0.50;0.50;;;;;;;12.94;52.14;99027.00;5055992;28;20080;-68
2023/04/12 08:08:45;;;;;;;;;;;;;;;13.04;52.71;99020.84;5055831;28;20041;-67
2023/04/12 08:11:14;;;;;;;0.40;0.40;;;;;;;13.17;53.32;99013.75;5055879;28;20358;-67
2023/04/12 08:13:43;;;;;;;0.30;0.30;;;;;;;13.28;52.27;99011.78;5055635;28;20049;-68
2023/04/12 08:16:13;;;;;;;0.40;0.40;;;;;;;13.30;52.05;99010.03;5055863;28;20391;-67
2023/04/12 08:18:42;;;;;;;0.60;0.60;;;;;;;13.25;51.09;99011.84;5055350;28;20045;-67
2023/04/12 08:21:11;;;;;;;0.87;0.87;;;;;;;13.18;50.64;99011.16;5055800;28;20500;-68
2023/04/12 08:23:40;;;;;;;0.30;0.30;;;;;;;13.09;50.26;99016.50;5055720;28;20479;-67
2023/04/12 08:26:09;;;;;;;0.60;0.60;;;;;;;13.22;50.24;99014.50;5055402;28;20052;-67
2023/04/12 08:28:38;;;;;;;0.45;0.45;;;;;;;13.36;49.84;99015.84;5055406;28;20083;-67
2023/04/12 08:31:08;;;;;;;0.50;0.50;;;;;;;13.24;49.39;99013.59;5055247;28;20123;-68
2023/04/12 08:33:38;;;;;;;0.30;0.30;;;;;;;13.36;49.36;99013.28;5055512;28;20052;-67
2023/04/12 08:36:08;;;;;;;0.40;0.40;;;;;;;13.50;49.45;99013.00;5055082;28;20128;-68
2023/04/12 08:38:37;;;;;;;;;;;;;;;13.72;49.84;99023.59;5055368;28;20440;-67
2023/04/12 08:41:14;;;;;;;0.40;0.40;;;;;;;13.72;50.18;99003.06;5055159;28;19924;-68
2023/04/12 08:43:46;;;;;;;1.00;0.57;;;;;;;13.98;51.16;99000.72;5055072;28;20045;-68
2023/04/12 08:46:15;;;;;;;0.50;0.50;;;;;;;13.95;49.59;99003.34;5054959;28;20072;-67
2023/04/12 08:48:47;;;;;;;0.60;0.60;;;;;;;13.75;49.19;99006.41;5054873;28;20048;-67
2023/04/12 08:51:18;;;;;;;0.50;0.50;;;;;;;13.78;48.76;99002.91;5055538;28;20438;-68
2023/04/12 08:53:47;;;;;;;1.13;0.88;;;;;;;13.91;48.76;98991.47;5054500;28;20458;-67
2023/04/12 08:56:16;;;;;;;0.37;0.37;;;;;;;13.67;48.09;98981.81;5054846;28;20045;-67
2023/04/12 08:58:47;;;;;;;0.40;0.40;;;;;;;13.43;47.82;98980.69;5054724;28;20526;-67
2023/04/12 09:01:18;;;;;;;0.60;0.60;;;;;;;13.48;48.79;98988.28;5055582;28;20048;-67
2023/04/12 09:03:49;;;;;;;0.40;0.40;;;;;;;13.84;50.94;98974.56;5054700;28;20056;-67
2023/04/12 09:06:18;;;;;;;0.40;0.40;;;;;;;14.16;50.93;98971.19;5054619;28;20502;-68
2023/04/12 09:08:55;;;;;;;1.55;1.45;;;;;;;14.29;49.53;98975.94;5054730;28;20033;-67
2023/04/12 09:11:26;;;;;;;0.88;0.88;;;;;;;14.20;47.88;98973.63;5054525;28;20079;-68
2023/04/12 09:13:56;;;;;;;0.50;0.50;;;;;;;14.04;47.22;98964.63;5054776;28;20053;-67
2023/04/12 09:16:38;;;;;;;0.47;0.47;;;;;;;14.00;46.66;98978.41;5054410;28;20060;-67
2023/04/12 09:19:09;;;;;;;0.57;0.57;;;;;;;14.07;47.08;98969.69;5054636;28;20053;-67
2023/04/12 09:21:53;;;;;;;0.47;0.47;;;;;;;14.29;47.12;98970.78;5054918;28;20068;-67
2023/04/12 09:24:23;;;;;;;0.40;0.40;;;;;;;14.15;46.26;98957.50;5054290;28;20064;-66
2023/04/12 09:27:03;;;;;;;0.45;0.45;;;;;;;14.29;46.13;98960.53;5054261;28;20041;-67
2023/04/12 09:29:32;;;;;;;;;;;;;;;14.33;46.04;98951.88;5054571;28;20045;-67
2023/04/12 09:32:02;;;;;;;0.30;0.30;;;;;;;14.50;46.24;98949.69;5054609;28;20358;-67
2023/04/12 09:34:35;;;;;;;0.95;0.77;;;;;;;14.63;46.59;98951.03;5054174;28;20044;-67
2023/04/12 09:37:14;;;;;;;0.50;0.50;;;;;;;14.80;46.42;98952.25;5053767;28;20053;-67
2023/04/12 09:39:43;;;;;;;;;;;;;;;14.82;46.84;98945.34;5054548;28;20507;-67
2023/04/12 09:42:13;;;;;;;0.45;0.40;;;;;;;14.99;47.94;98940.56;5054241;28;20333;-68
2023/04/12 09:45:21;;;;;;;0.90;0.85;;;;;;;15.18;47.26;98941.66;5053961;28;20095;-68
2023/04/12 09:47:50;;;;;;;0.65;0.65;;;;;;;15.17;47.57;98943.41;5054102;28;20041;-67
2023/04/12 09:50:23;;;;;;;0.90;0.50;;;;;;;15.27;47.84;98931.09;5053695;28;20041;-67
2023/04/12 09:52:53;;;;;;;0.77;0.77;;;;;;;15.23;47.42;98926.94;5053823;28;20044;-67
2023/04/12 09:55:22;;;;;;;;;;;;;;;15.17;46.56;98924.56;5054616;28;20062;-66
2023/04/12 09:57:52;;;;;;;0.30;0.30;;;;;;;15.04;45.57;98915.56;5053663;28;19925;-67
2023/04/12 10:00:25;;;;;;;0.70;0.60;;;;;;;14.87;45.34;98922.94;5054053;28;20059;-68
2023/04/12 10:02:56;;;;;;;0.63;0.63;;;;;;;15.22;46.82;98905.53;5053608;28;20041;-68
2023/04/12 10:05:27;;;;;;;0.40;0.40;;;;;;;15.39;46.03;98907.56;5053803;28;20052;-67
2023/04/12 10:08:00;;;;;;;0.50;0.50;;;;;;;15.52;46.87;98902.91;5053456;28;20494;-67
2023/04/12 10:10:31;;;;;;;0.93;0.90;;;;;;;15.44;46.02;98900.53;5053386;28;20045;-67
2023/04/12 10:13:01;;;;;;;0.35;0.35;;;;;;;15.65;46.34;98905.00;5053584;28;20052;-67
2023/04/12 10:15:31;;;;;;;0.45;0.45;;;;;;;15.73;47.19;98895.28;5052186;28;20041;-67
2023/04/12 10:18:07;;;;;;;0.75;0.75;;;;;;;15.67;46.43;98894.69;5052677;28;20049;-67
2023/04/12 10:20:40;;;;;;;0.80;0.80;;;;;;;15.61;45.86;98893.13;5053388;28;20052;-67
2023/04/12 10:23:12;;;;;;;0.40;0.40;;;;;;;15.40;44.87;98896.41;5053457;28;20495;-67
2023/04/12 10:25:43;;;;;;;0.70;0.70;;;;;;;15.54;45.35;98896.81;5053661;28;20434;-67
2023/04/12 10:28:17;;;;;;;1.13;0.63;;;;;;;15.76;46.51;98897.78;5053595;28;20137;-66
2023/04/12 10:30:49;;;;;;;0.30;0.30;;;;;;;15.74;45.88;98899.53;5053359;28;20044;-67
2023/04/12 10:33:19;;;;;;;0.63;0.60;;;;;;;15.45;45.54;98894.53;5053767;28;20502;-66
2023/04/12 10:35:56;;;;;;;0.50;0.50;;;;;;;15.59;45.46;98897.50;5053333;28;20045;-66
2023/04/12 10:38:30;;;;;;;0.43;0.43;;;;;;;15.57;45.19;98881.28;5053242;28;20056;-67
2023/04/12 10:41:13;;;;;;;0.50;0.50;;;;;;;15.19;44.89;98881.63;5053552;28;20136;-66
2023/04/12 10:43:42;;;;;;;0.70;0.70;;;;;;;14.78;45.83;98888.91;5053825;28;20045;-65
2023/04/12 10:46:33;;;;;;;0.57;0.55;;;;;;;14.61;46.02;98886.00;5053206;28;20072;-66
2023/04/12 10:49:08;;;;;;;0.50;0.50;;;;;;;14.84;45.75;98892.19;5053177;28;20041;-66
2023/04/12 10:51:39;;;;;;;0.40;0.40;;;;;;;14.96;45.62;98881.53;5053051;28;20057;-65
2023/04/12 10:54:34;;;;;;;0.40;0.40;;;;;;;15.18;46.31;98877.41;5053055;28;20053;-65
2023/04/12 10:57:04;;;;;;;0.50;0.50;;;;;;;15.43;46.73;98880.84;5051869;28;20048;-65
2023/04/12 10:59:51;;;;;;;0.77;0.77;;;;;;;15.53;46.72;98879.69;5052953;28;20048;-66
2023/04/12 11:02:20;;;;;;;0.77;0.77;;;;;;;15.37;47.13;98873.34;5052982;28;20045;-66
2023/04/12 11:05:09;;;;;;;3.90;0.98;;;;;;;15.10;46.70;98871.66;5053056;28;20045;-67
2023/04/12 11:07:54;;;;;;;0.35;0.35;;;;;;;14.91;47.07;98853.41;5052827;28;20072;-65
2023/04/12 11:10:46;;;;;;;0.40;0.40;;;;;;;14.76;47.16;98859.03;5052631;28;20049;-65
2023/04/12 11:13:22;;;;;;;0.52;0.52;;;;;;;14.72;46.93;98852.31;5051703;28;20049;-65
2023/04/12 11:15:55;;;;;;;;;;;;;;;14.51;47.40;98864.09;5052479;28;20041;-65
2023/04/12 11:18:25;;;;;;;0.50;0.50;;;;;;;14.87;47.81;98845.84;5056719;28;19920;-65
2023/04/12 11:20:54;;;;;;;0.60;0.60;;;;;;;15.33;49.22;98840.91;5056895;28;20452;-66
2023/04/12 11:23:25;;;;;;;0.87;0.87;;;;;;;15.56;48.17;98838.44;5056627;28;20033;-66
2023/04/12 11:25:54;;;;;;;0.50;0.50;;;;;;;15.84;47.76;98828.00;5056608;28;20045;-66
2023/04/12 11:28:24;;;;;;;0.50;0.50;;;;;;;16.02;46.97;98830.78;5056524;28;20491;-66
2023/04/12 11:30:59;;;;;;;1.08;0.50;;;;;;;16.06;46.71;98824.63;5056900;28;20696;-66
2023/04/12 11:33:34;;;;;;;0.97;0.60;;;;;;;15.89;45.61;98816.66;5056336;28;20541;-66
2023/04/12 11:36:06;;;;;;;0.85;0.73;;;;;;;15.87;45.57;98826.19;5056432;28;20756;-66
2023/04/12 11:38:37;;;;;;;1.08;1.00;;;;;;;15.89;45.69;98821.81;5056436;28;20056;-66
2023/04/12 11:41:08;;;;;;;1.75;0.68;;;;;;;16.10;45.96;98815.03;5056593;28;20040;-66
2023/04/12 11:43:38;;;;;;;0.85;0.85;;;;;;;15.88;45.80;98814.97;5056179;28;20048;-66
2023/04/12 11:46:07;;;;;;;0.40;0.40;;;;;;;15.58;45.89;98808.34;5056409;28;20411;-66
2023/04/12 11:48:37;;;;;;;0.50;0.50;;;;;;;15.26;45.43;98813.75;5056190;28;20041;-67
2023/04/12 11:51:20;;;;;;;0.40;0.40;;;;;;;15.27;45.80;98812.81;5056019;28;20053;-66
2023/04/12 11:53:54;;;;;;;1.15;1.05;;;;;;;15.43;45.94;98819.13;5056085;28;20067;-66
2023/04/12 11:56:24;;;;;;;1.23;0.90;;;;;;;15.78;45.56;98812.81;5055861;28;20055;-66
2023/04/12 11:58:52;;;;;;;0.40;0.40;;;;;;;15.89;45.92;98811.53;5056244;28;20123;-66
2023/04/12 12:01:22;;;;;;;7.03;1.00;;;;;;;16.06;45.37;98809.16;5055795;28;20045;-66
2023/04/12 12:03:52;;;;;;;1.23;0.82;;;;;;;16.31;45.37;98800.53;5055773;28;20049;-65